Aérodrome :







RETROUVEZ-NOUS SUR...

 
LOGIN :

S'inscrire | Disclaimer

   EN    FR    IT 

 









Légende :    VFR   VFR Marginal   IFR   IFR Intensif   IFR Très Intensif
Visi : 
Plafond : 
>= 8 km
>= 3000ft
5 à 8 km
1000 à 3000 ft
1500m à 5 km
500 à 1000 ft
800 à 1500m
200 à 500 ft
< 800m
< 200 ft
Symboles :   Orages  Brouillard  Fortes neiges  Fortes précipitations  Vent > 20 kt






- Altitude de l'aérodrome : 70 ft


KIWI - Wiscasset

DERNIER METAR :
  • 141253Z AUTO 00000KT 10SM FEW120 M09/M11 A3052 RMK AO2 SLP335 T10891111

METARs EXPIRÉS :
  • 141153Z AUTO 00000KT 10SM CLR M12/M14 A3051 RMK AO2 SLP334 I6000 T11221144 11100 21128 51009
  • 141053Z AUTO 00000KT 10SM CLR M12/M14 A3051 RMK AO2 SLP331 I1000 T11221144

TAF N/A



MET'MAP, la Météo Aéronautique d'un coup d'oeil ! - Copyright ORBIFLY Décembre 2007 - Disclaimer

ORBIFLY MET'MAP TEAM :

Programmation & Développement : Alexandra Zaïnal
Conception & Développement : Baudouin d'Aumeries
Co-Programmation & Développement : Marc-Olivier Méhu
Soutien technique & logistique : Manuel Goepfert

Contact : metmap@orbifly.com




SOURCES & CREDITS :

   NOAA